sensor_id;sensor_type;location;lat;lon;timestamp;P1;durP1;ratioP1;P2;durP2;ratioP2
39442;SDS011;25147;52.142;9.960;2023-04-07T00:01:32;13.87;;;11.60;;
39442;SDS011;25147;52.142;9.960;2023-04-07T00:03:59;15.50;;;10.90;;
39442;SDS011;25147;52.142;9.960;2023-04-07T00:06:26;14.07;;;10.97;;
39442;SDS011;25147;52.142;9.960;2023-04-07T00:08:55;12.47;;;11.00;;
39442;SDS011;25147;52.142;9.960;2023-04-07T00:11:21;14.33;;;11.33;;
39442;SDS011;25147;52.142;9.960;2023-04-07T00:13:48;13.33;;;10.93;;
39442;SDS011;25147;52.142;9.960;2023-04-07T00:16:15;14.87;;;11.63;;
39442;SDS011;25147;52.142;9.960;2023-04-07T00:18:42;16.03;;;11.83;;
39442;SDS011;25147;52.142;9.960;2023-04-07T00:21:09;13.70;;;10.90;;
39442;SDS011;25147;52.142;9.960;2023-04-07T00:23:36;13.53;;;10.97;;
39442;SDS011;25147;52.142;9.960;2023-04-07T00:26:04;13.17;;;11.17;;
39442;SDS011;25147;52.142;9.960;2023-04-07T00:28:31;16.63;;;11.87;;
39442;SDS011;25147;52.142;9.960;2023-04-07T00:30:58;17.43;;;11.73;;
39442;SDS011;25147;52.142;9.960;2023-04-07T00:33:25;15.87;;;11.80;;
39442;SDS011;25147;52.142;9.960;2023-04-07T00:35:52;15.70;;;12.27;;
39442;SDS011;25147;52.142;9.960;2023-04-07T00:38:19;13.80;;;11.43;;
39442;SDS011;25147;52.142;9.960;2023-04-07T00:40:46;12.27;;;10.53;;
39442;SDS011;25147;52.142;9.960;2023-04-07T00:43:14;13.70;;;11.57;;
39442;SDS011;25147;52.142;9.960;2023-04-07T00:45:41;14.13;;;10.93;;
39442;SDS011;25147;52.142;9.960;2023-04-07T00:48:08;19.00;;;12.73;;
39442;SDS011;25147;52.142;9.960;2023-04-07T00:50:35;18.23;;;11.73;;
39442;SDS011;25147;52.142;9.960;2023-04-07T00:53:02;15.53;;;10.90;;
39442;SDS011;25147;52.142;9.960;2023-04-07T00:55:29;15.77;;;11.97;;
39442;SDS011;25147;52.142;9.960;2023-04-07T00:57:56;14.30;;;11.30;;
39442;SDS011;25147;52.142;9.960;2023-04-07T01:00:24;13.90;;;11.63;;
39442;SDS011;25147;52.142;9.960;2023-04-07T01:02:54;15.63;;;10.90;;
39442;SDS011;25147;52.142;9.960;2023-04-07T01:05:27;14.43;;;11.20;;
39442;SDS011;25147;52.142;9.960;2023-04-07T01:08:05;14.73;;;11.00;;
39442;SDS011;25147;52.142;9.960;2023-04-07T01:10:40;15.20;;;11.50;;
39442;SDS011;25147;52.142;9.960;2023-04-07T01:13:15;17.00;;;10.50;;
39442;SDS011;25147;52.142;9.960;2023-04-07T01:15:51;14.73;;;10.33;;
39442;SDS011;25147;52.142;9.960;2023-04-07T01:18:21;15.10;;;10.90;;
39442;SDS011;25147;52.142;9.960;2023-04-07T01:20:54;14.03;;;11.27;;
39442;SDS011;25147;52.142;9.960;2023-04-07T01:23:25;15.07;;;12.03;;
39442;SDS011;25147;52.142;9.960;2023-04-07T01:26:06;14.93;;;11.93;;
39442;SDS011;25147;52.142;9.960;2023-04-07T01:28:55;13.80;;;11.77;;
39442;SDS011;25147;52.142;9.960;2023-04-07T01:31:34;12.50;;;10.43;;
39442;SDS011;25147;52.142;9.960;2023-04-07T01:34:05;14.70;;;11.03;;
39442;SDS011;25147;52.142;9.960;2023-04-07T01:36:35;15.13;;;10.57;;
39442;SDS011;25147;52.142;9.960;2023-04-07T01:39:02;11.20;;;9.57;;
39442;SDS011;25147;52.142;9.960;2023-04-07T01:41:29;16.70;;;12.27;;
39442;SDS011;25147;52.142;9.960;2023-04-07T01:43:57;14.53;;;10.80;;
39442;SDS011;25147;52.142;9.960;2023-04-07T01:46:27;13.90;;;10.50;;
39442;SDS011;25147;52.142;9.960;2023-04-07T01:48:56;13.07;;;11.10;;
39442;SDS011;25147;52.142;9.960;2023-04-07T01:51:24;18.20;;;12.13;;
39442;SDS011;25147;52.142;9.960;2023-04-07T01:53:52;16.37;;;11.83;;
39442;SDS011;25147;52.142;9.960;2023-04-07T01:56:19;13.70;;;10.83;;
39442;SDS011;25147;52.142;9.960;2023-04-07T01:58:46;12.60;;;10.00;;
39442;SDS011;25147;52.142;9.960;2023-04-07T02:01:13;13.33;;;11.27;;
39442;SDS011;25147;52.142;9.960;2023-04-07T02:03:42;13.43;;;10.97;;
39442;SDS011;25147;52.142;9.960;2023-04-07T02:06:14;12.73;;;11.27;;
39442;SDS011;25147;52.142;9.960;2023-04-07T02:08:45;14.37;;;11.47;;
39442;SDS011;25147;52.142;9.960;2023-04-07T02:11:17;12.73;;;11.17;;
39442;SDS011;25147;52.142;9.960;2023-04-07T02:13:47;13.77;;;11.37;;
39442;SDS011;25147;52.142;9.960;2023-04-07T02:16:16;15.53;;;11.53;;
39442;SDS011;25147;52.142;9.960;2023-04-07T02:18:45;13.63;;;11.20;;
39442;SDS011;25147;52.142;9.960;2023-04-07T02:21:15;15.43;;;11.60;;
39442;SDS011;25147;52.142;9.960;2023-04-07T02:23:42;13.20;;;10.73;;
39442;SDS011;25147;52.142;9.960;2023-04-07T02:26:09;14.83;;;11.80;;
39442;SDS011;25147;52.142;9.960;2023-04-07T02:28:36;15.80;;;11.53;;
39442;SDS011;25147;52.142;9.960;2023-04-07T02:31:03;13.63;;;11.07;;
39442;SDS011;25147;52.142;9.960;2023-04-07T02:33:30;16.23;;;11.27;;
39442;SDS011;25147;52.142;9.960;2023-04-07T02:35:57;15.73;;;12.07;;
39442;SDS011;25147;52.142;9.960;2023-04-07T02:38:26;14.97;;;12.00;;
39442;SDS011;25147;52.142;9.960;2023-04-07T02:40:52;15.97;;;12.07;;
39442;SDS011;25147;52.142;9.960;2023-04-07T02:43:20;14.73;;;11.50;;
39442;SDS011;25147;52.142;9.960;2023-04-07T02:45:47;14.63;;;12.53;;
39442;SDS011;25147;52.142;9.960;2023-04-07T02:48:14;14.83;;;12.20;;
39442;SDS011;25147;52.142;9.960;2023-04-07T02:50:40;13.50;;;11.47;;
39442;SDS011;25147;52.142;9.960;2023-04-07T02:53:08;16.40;;;12.07;;
39442;SDS011;25147;52.142;9.960;2023-04-07T02:55:37;17.87;;;12.57;;
39442;SDS011;25147;52.142;9.960;2023-04-07T02:58:03;15.60;;;13.13;;
39442;SDS011;25147;52.142;9.960;2023-04-07T03:00:30;16.70;;;13.00;;
39442;SDS011;25147;52.142;9.960;2023-04-07T03:02:57;17.83;;;13.27;;
39442;SDS011;25147;52.142;9.960;2023-04-07T03:05:24;18.50;;;12.40;;
39442;SDS011;25147;52.142;9.960;2023-04-07T03:07:51;18.30;;;13.50;;
39442;SDS011;25147;52.142;9.960;2023-04-07T03:10:18;14.47;;;12.07;;
39442;SDS011;25147;52.142;9.960;2023-04-07T03:12:46;14.83;;;12.33;;
39442;SDS011;25147;52.142;9.960;2023-04-07T03:15:13;15.53;;;12.80;;
39442;SDS011;25147;52.142;9.960;2023-04-07T03:17:40;15.97;;;12.77;;
39442;SDS011;25147;52.142;9.960;2023-04-07T03:20:07;15.17;;;12.70;;
39442;SDS011;25147;52.142;9.960;2023-04-07T03:22:35;16.70;;;12.60;;
39442;SDS011;25147;52.142;9.960;2023-04-07T03:25:02;17.80;;;14.03;;
39442;SDS011;25147;52.142;9.960;2023-04-07T03:27:29;18.63;;;13.03;;
39442;SDS011;25147;52.142;9.960;2023-04-07T03:29:57;17.03;;;13.27;;
39442;SDS011;25147;52.142;9.960;2023-04-07T03:32:24;16.40;;;13.33;;
39442;SDS011;25147;52.142;9.960;2023-04-07T03:34:51;16.20;;;13.20;;
39442;SDS011;25147;52.142;9.960;2023-04-07T03:37:18;16.27;;;14.10;;
39442;SDS011;25147;52.142;9.960;2023-04-07T03:39:45;20.90;;;13.97;;
39442;SDS011;25147;52.142;9.960;2023-04-07T03:42:12;17.27;;;13.90;;
39442;SDS011;25147;52.142;9.960;2023-04-07T03:44:39;18.03;;;13.83;;
39442;SDS011;25147;52.142;9.960;2023-04-07T03:47:07;15.50;;;13.23;;
39442;SDS011;25147;52.142;9.960;2023-04-07T03:49:34;19.30;;;13.87;;
39442;SDS011;25147;52.142;9.960;2023-04-07T03:52:02;19.60;;;14.77;;
39442;SDS011;25147;52.142;9.960;2023-04-07T03:54:29;16.07;;;14.13;;
39442;SDS011;25147;52.142;9.960;2023-04-07T03:56:56;18.37;;;14.83;;
39442;SDS011;25147;52.142;9.960;2023-04-07T03:59:23;18.43;;;13.83;;
39442;SDS011;25147;52.142;9.960;2023-04-07T04:01:50;17.00;;;14.30;;
39442;SDS011;25147;52.142;9.960;2023-04-07T04:04:19;17.80;;;15.07;;
39442;SDS011;25147;52.142;9.960;2023-04-07T04:06:48;19.30;;;15.10;;
39442;SDS011;25147;52.142;9.960;2023-04-07T04:09:16;17.37;;;14.00;;
39442;SDS011;25147;52.142;9.960;2023-04-07T04:11:43;17.90;;;14.87;;
39442;SDS011;25147;52.142;9.960;2023-04-07T04:14:09;18.37;;;14.97;;
39442;SDS011;25147;52.142;9.960;2023-04-07T04:16:36;18.37;;;13.90;;
39442;SDS011;25147;52.142;9.960;2023-04-07T04:19:03;17.93;;;15.40;;
39442;SDS011;25147;52.142;9.960;2023-04-07T04:21:31;18.80;;;14.87;;
39442;SDS011;25147;52.142;9.960;2023-04-07T04:23:58;20.00;;;14.87;;
39442;SDS011;25147;52.142;9.960;2023-04-07T04:26:25;18.53;;;15.60;;
39442;SDS011;25147;52.142;9.960;2023-04-07T04:28:54;17.43;;;14.10;;
39442;SDS011;25147;52.142;9.960;2023-04-07T04:31:20;18.13;;;14.20;;
39442;SDS011;25147;52.142;9.960;2023-04-07T04:33:47;17.03;;;14.07;;
39442;SDS011;25147;52.142;9.960;2023-04-07T04:36:14;17.30;;;14.50;;
39442;SDS011;25147;52.142;9.960;2023-04-07T04:38:43;21.57;;;15.13;;
39442;SDS011;25147;52.142;9.960;2023-04-07T04:41:10;18.77;;;14.60;;
39442;SDS011;25147;52.142;9.960;2023-04-07T04:43:37;19.03;;;15.10;;
39442;SDS011;25147;52.142;9.960;2023-04-07T04:46:04;20.27;;;15.90;;
39442;SDS011;25147;52.142;9.960;2023-04-07T04:48:31;19.17;;;16.00;;
39442;SDS011;25147;52.142;9.960;2023-04-07T04:50:58;20.53;;;15.90;;
39442;SDS011;25147;52.142;9.960;2023-04-07T04:53:24;19.80;;;16.30;;
39442;SDS011;25147;52.142;9.960;2023-04-07T04:55:53;18.50;;;15.40;;
39442;SDS011;25147;52.142;9.960;2023-04-07T04:58:20;20.07;;;16.07;;
39442;SDS011;25147;52.142;9.960;2023-04-07T05:00:47;21.10;;;16.20;;
39442;SDS011;25147;52.142;9.960;2023-04-07T05:03:14;20.00;;;15.83;;
39442;SDS011;25147;52.142;9.960;2023-04-07T05:05:41;20.37;;;15.80;;
39442;SDS011;25147;52.142;9.960;2023-04-07T05:08:09;20.20;;;15.60;;
39442;SDS011;25147;52.142;9.960;2023-04-07T05:10:37;20.40;;;16.27;;
39442;SDS011;25147;52.142;9.960;2023-04-07T05:13:06;19.27;;;15.87;;
39442;SDS011;25147;52.142;9.960;2023-04-07T05:15:33;20.37;;;15.87;;
39442;SDS011;25147;52.142;9.960;2023-04-07T05:18:00;18.20;;;15.93;;
39442;SDS011;25147;52.142;9.960;2023-04-07T05:20:27;18.97;;;16.97;;
39442;SDS011;25147;52.142;9.960;2023-04-07T05:22:54;20.10;;;16.47;;
39442;SDS011;25147;52.142;9.960;2023-04-07T05:25:21;19.30;;;16.10;;
39442;SDS011;25147;52.142;9.960;2023-04-07T05:27:50;20.77;;;16.23;;
39442;SDS011;25147;52.142;9.960;2023-04-07T05:30:19;18.93;;;15.47;;
39442;SDS011;25147;52.142;9.960;2023-04-07T05:32:46;19.73;;;15.90;;
39442;SDS011;25147;52.142;9.960;2023-04-07T05:35:13;18.73;;;16.53;;
39442;SDS011;25147;52.142;9.960;2023-04-07T05:37:40;20.90;;;16.10;;
39442;SDS011;25147;52.142;9.960;2023-04-07T05:40:07;19.23;;;16.40;;
39442;SDS011;25147;52.142;9.960;2023-04-07T05:42:35;24.73;;;15.83;;
39442;SDS011;25147;52.142;9.960;2023-04-07T05:45:02;18.10;;;16.07;;
39442;SDS011;25147;52.142;9.960;2023-04-07T05:47:31;19.30;;;15.70;;
39442;SDS011;25147;52.142;9.960;2023-04-07T05:49:58;18.90;;;15.43;;
39442;SDS011;25147;52.142;9.960;2023-04-07T05:52:25;20.23;;;16.37;;
39442;SDS011;25147;52.142;9.960;2023-04-07T05:54:52;20.13;;;16.33;;
39442;SDS011;25147;52.142;9.960;2023-04-07T05:57:19;21.47;;;15.80;;
39442;SDS011;25147;52.142;9.960;2023-04-07T05:59:45;18.57;;;15.83;;
39442;SDS011;25147;52.142;9.960;2023-04-07T06:02:12;18.90;;;15.20;;
39442;SDS011;25147;52.142;9.960;2023-04-07T06:04:41;20.33;;;15.60;;
39442;SDS011;25147;52.142;9.960;2023-04-07T06:07:08;20.87;;;15.70;;
39442;SDS011;25147;52.142;9.960;2023-04-07T06:09:35;18.27;;;16.27;;
39442;SDS011;25147;52.142;9.960;2023-04-07T06:12:03;19.00;;;15.63;;
39442;SDS011;25147;52.142;9.960;2023-04-07T06:14:31;19.97;;;16.27;;
39442;SDS011;25147;52.142;9.960;2023-04-07T06:16:58;17.37;;;15.30;;
39442;SDS011;25147;52.142;9.960;2023-04-07T06:19:25;17.63;;;15.33;;
39442;SDS011;25147;52.142;9.960;2023-04-07T06:21:54;18.30;;;15.27;;
39442;SDS011;25147;52.142;9.960;2023-04-07T06:24:21;20.43;;;17.07;;
39442;SDS011;25147;52.142;9.960;2023-04-07T06:26:49;18.87;;;15.97;;
39442;SDS011;25147;52.142;9.960;2023-04-07T06:29:17;19.23;;;16.03;;
39442;SDS011;25147;52.142;9.960;2023-04-07T06:31:45;18.13;;;15.10;;
39442;SDS011;25147;52.142;9.960;2023-04-07T06:34:12;19.37;;;16.50;;
39442;SDS011;25147;52.142;9.960;2023-04-07T06:36:39;17.93;;;15.43;;
39442;SDS011;25147;52.142;9.960;2023-04-07T06:39:07;17.77;;;15.23;;
39442;SDS011;25147;52.142;9.960;2023-04-07T06:41:34;17.60;;;15.73;;
39442;SDS011;25147;52.142;9.960;2023-04-07T06:44:03;18.93;;;16.43;;
39442;SDS011;25147;52.142;9.960;2023-04-07T06:46:30;18.63;;;15.93;;
39442;SDS011;25147;52.142;9.960;2023-04-07T06:48:57;17.43;;;15.43;;
39442;SDS011;25147;52.142;9.960;2023-04-07T06:51:24;19.47;;;16.40;;
39442;SDS011;25147;52.142;9.960;2023-04-07T06:53:52;18.47;;;15.57;;
39442;SDS011;25147;52.142;9.960;2023-04-07T06:56:21;17.93;;;15.97;;
39442;SDS011;25147;52.142;9.960;2023-04-07T06:58:48;17.37;;;15.57;;
39442;SDS011;25147;52.142;9.960;2023-04-07T07:01:15;16.67;;;14.87;;
39442;SDS011;25147;52.142;9.960;2023-04-07T07:03:42;18.93;;;15.73;;
39442;SDS011;25147;52.142;9.960;2023-04-07T07:06:09;18.93;;;15.30;;
39442;SDS011;25147;52.142;9.960;2023-04-07T07:08:36;17.30;;;14.80;;
39442;SDS011;25147;52.142;9.960;2023-04-07T07:11:04;18.07;;;15.13;;
39442;SDS011;25147;52.142;9.960;2023-04-07T07:13:32;16.43;;;14.67;;
39442;SDS011;25147;52.142;9.960;2023-04-07T07:15:59;16.60;;;14.50;;
39442;SDS011;25147;52.142;9.960;2023-04-07T07:18:26;16.70;;;14.93;;
39442;SDS011;25147;52.142;9.960;2023-04-07T07:20:53;16.47;;;13.93;;
39442;SDS011;25147;52.142;9.960;2023-04-07T07:23:20;20.13;;;16.33;;
39442;SDS011;25147;52.142;9.960;2023-04-07T07:25:47;17.40;;;15.60;;
39442;SDS011;25147;52.142;9.960;2023-04-07T07:28:15;18.17;;;15.57;;
39442;SDS011;25147;52.142;9.960;2023-04-07T07:30:44;17.77;;;15.03;;
39442;SDS011;25147;52.142;9.960;2023-04-07T07:33:11;16.23;;;14.53;;
39442;SDS011;25147;52.142;9.960;2023-04-07T07:35:38;16.00;;;13.57;;
39442;SDS011;25147;52.142;9.960;2023-04-07T07:38:05;15.33;;;13.43;;
39442;SDS011;25147;52.142;9.960;2023-04-07T07:40:33;16.53;;;13.20;;
39442;SDS011;25147;52.142;9.960;2023-04-07T07:43:00;15.60;;;12.17;;
39442;SDS011;25147;52.142;9.960;2023-04-07T07:45:30;14.10;;;12.10;;
39442;SDS011;25147;52.142;9.960;2023-04-07T07:48:05;16.53;;;13.57;;
39442;SDS011;25147;52.142;9.960;2023-04-07T07:50:35;15.60;;;12.43;;
39442;SDS011;25147;52.142;9.960;2023-04-07T07:53:02;15.23;;;13.73;;
39442;SDS011;25147;52.142;9.960;2023-04-07T07:55:30;14.53;;;13.03;;
39442;SDS011;25147;52.142;9.960;2023-04-07T07:57:57;14.27;;;12.00;;
39442;SDS011;25147;52.142;9.960;2023-04-07T08:00:24;14.53;;;13.03;;
39442;SDS011;25147;52.142;9.960;2023-04-07T08:02:51;15.43;;;13.73;;
39442;SDS011;25147;52.142;9.960;2023-04-07T08:05:19;14.97;;;13.47;;
39442;SDS011;25147;52.142;9.960;2023-04-07T08:07:46;14.15;;;12.63;;
39442;SDS011;25147;52.142;9.960;2023-04-07T08:10:13;13.95;;;10.63;;
39442;SDS011;25147;52.142;9.960;2023-04-07T08:12:41;14.20;;;12.67;;
39442;SDS011;25147;52.142;9.960;2023-04-07T08:15:08;14.27;;;12.77;;
39442;SDS011;25147;52.142;9.960;2023-04-07T08:17:35;13.07;;;11.75;;
39442;SDS011;25147;52.142;9.960;2023-04-07T08:20:03;14.18;;;10.65;;
39442;SDS011;25147;52.142;9.960;2023-04-07T08:22:32;14.82;;;11.93;;
39442;SDS011;25147;52.142;9.960;2023-04-07T08:25:00;12.98;;;10.80;;
39442;SDS011;25147;52.142;9.960;2023-04-07T08:27:28;11.65;;;9.40;;
39442;SDS011;25147;52.142;9.960;2023-04-07T08:29:59;12.50;;;11.30;;
39442;SDS011;25147;52.142;9.960;2023-04-07T08:32:35;12.73;;;11.23;;
39442;SDS011;25147;52.142;9.960;2023-04-07T08:35:04;12.65;;;11.38;;
39442;SDS011;25147;52.142;9.960;2023-04-07T08:37:33;12.73;;;11.30;;
39442;SDS011;25147;52.142;9.960;2023-04-07T08:40:02;12.70;;;10.43;;
39442;SDS011;25147;52.142;9.960;2023-04-07T08:42:33;11.55;;;10.15;;
39442;SDS011;25147;52.142;9.960;2023-04-07T08:45:04;10.82;;;9.82;;
39442;SDS011;25147;52.142;9.960;2023-04-07T08:47:34;10.45;;;9.45;;
39442;SDS011;25147;52.142;9.960;2023-04-07T08:50:03;10.00;;;9.00;;
39442;SDS011;25147;52.142;9.960;2023-04-07T08:52:37;11.65;;;10.25;;
39442;SDS011;25147;52.142;9.960;2023-04-07T08:55:07;10.80;;;8.88;;
39442;SDS011;25147;52.142;9.960;2023-04-07T08:57:37;10.02;;;9.02;;
39442;SDS011;25147;52.142;9.960;2023-04-07T09:00:07;11.00;;;9.15;;
39442;SDS011;25147;52.142;9.960;2023-04-07T09:02:35;11.20;;;8.43;;
39442;SDS011;25147;52.142;9.960;2023-04-07T09:05:06;9.23;;;8.25;;
39442;SDS011;25147;52.142;9.960;2023-04-07T09:07:38;10.43;;;8.52;;
39442;SDS011;25147;52.142;9.960;2023-04-07T09:10:07;9.82;;;8.55;;
39442;SDS011;25147;52.142;9.960;2023-04-07T09:12:35;9.23;;;8.32;;
39442;SDS011;25147;52.142;9.960;2023-04-07T09:15:03;10.57;;;8.55;;
39442;SDS011;25147;52.142;9.960;2023-04-07T09:17:31;10.00;;;7.80;;
39442;SDS011;25147;52.142;9.960;2023-04-07T09:19:59;9.63;;;7.97;;
39442;SDS011;25147;52.142;9.960;2023-04-07T09:22:33;10.02;;;8.60;;
39442;SDS011;25147;52.142;9.960;2023-04-07T09:25:10;9.15;;;8.18;;
39442;SDS011;25147;52.142;9.960;2023-04-07T09:27:38;9.88;;;8.88;;
39442;SDS011;25147;52.142;9.960;2023-04-07T09:30:10;9.63;;;8.60;;
39442;SDS011;25147;52.142;9.960;2023-04-07T09:32:38;9.30;;;8.25;;
39442;SDS011;25147;52.142;9.960;2023-04-07T09:35:06;9.57;;;8.25;;
39442;SDS011;25147;52.142;9.960;2023-04-07T09:37:33;10.00;;;8.23;;
39442;SDS011;25147;52.142;9.960;2023-04-07T09:40:00;22.70;;;13.43;;
39442;SDS011;25147;52.142;9.960;2023-04-07T09:42:29;12.90;;;8.63;;
39442;SDS011;25147;52.142;9.960;2023-04-07T09:45:00;10.65;;;8.55;;
39442;SDS011;25147;52.142;9.960;2023-04-07T09:47:27;9.88;;;8.77;;
39442;SDS011;25147;52.142;9.960;2023-04-07T09:49:55;9.27;;;8.23;;
39442;SDS011;25147;52.142;9.960;2023-04-07T09:52:25;10.80;;;9.00;;
39442;SDS011;25147;52.142;9.960;2023-04-07T09:55:15;8.73;;;7.82;;
39442;SDS011;25147;52.142;9.960;2023-04-07T09:57:44;11.45;;;9.27;;
39442;SDS011;25147;52.142;9.960;2023-04-07T10:00:12;12.77;;;8.95;;
39442;SDS011;25147;52.142;9.960;2023-04-07T10:02:40;10.80;;;8.90;;
39442;SDS011;25147;52.142;9.960;2023-04-07T10:05:07;10.77;;;8.00;;
39442;SDS011;25147;52.142;9.960;2023-04-07T10:07:34;9.57;;;8.25;;
39442;SDS011;25147;52.142;9.960;2023-04-07T10:10:02;10.07;;;8.40;;
39442;SDS011;25147;52.142;9.960;2023-04-07T10:12:29;10.95;;;8.57;;
39442;SDS011;25147;52.142;9.960;2023-04-07T10:14:59;9.90;;;8.68;;
39442;SDS011;25147;52.142;9.960;2023-04-07T10:17:27;11.02;;;7.93;;
39442;SDS011;25147;52.142;9.960;2023-04-07T10:19:54;10.18;;;8.55;;
39442;SDS011;25147;52.142;9.960;2023-04-07T10:22:24;10.50;;;8.70;;
39442;SDS011;25147;52.142;9.960;2023-04-07T10:24:54;10.18;;;8.38;;
39442;SDS011;25147;52.142;9.960;2023-04-07T10:27:27;11.10;;;9.23;;
39442;SDS011;25147;52.142;9.960;2023-04-07T10:29:57;10.00;;;8.20;;
39442;SDS011;25147;52.142;9.960;2023-04-07T10:32:26;11.20;;;9.45;;
39442;SDS011;25147;52.142;9.960;2023-04-07T10:34:54;9.93;;;8.05;;
39442;SDS011;25147;52.142;9.960;2023-04-07T10:37:23;9.70;;;7.97;;
39442;SDS011;25147;52.142;9.960;2023-04-07T10:42:52;9.15;;;8.18;;
39442;SDS011;25147;52.142;9.960;2023-04-07T10:45:50;9.50;;;7.88;;
39442;SDS011;25147;52.142;9.960;2023-04-07T10:48:30;9.43;;;8.25;;
39442;SDS011;25147;52.142;9.960;2023-04-07T10:51:10;10.40;;;8.38;;
39442;SDS011;25147;52.142;9.960;2023-04-07T10:57:09;13.00;;;9.18;;
39442;SDS011;25147;52.142;9.960;2023-04-07T10:59:38;10.55;;;8.52;;
39442;SDS011;25147;52.142;9.960;2023-04-07T11:04:57;11.23;;;8.23;;
39442;SDS011;25147;52.142;9.960;2023-04-07T11:07:44;10.18;;;9.13;;
39442;SDS011;25147;52.142;9.960;2023-04-07T11:10:14;11.07;;;8.75;;
39442;SDS011;25147;52.142;9.960;2023-04-07T11:12:43;8.55;;;7.57;;
39442;SDS011;25147;52.142;9.960;2023-04-07T11:15:20;11.05;;;9.00;;
39442;SDS011;25147;52.142;9.960;2023-04-07T11:20:41;11.25;;;8.48;;
39442;SDS011;25147;52.142;9.960;2023-04-07T11:23:12;11.82;;;8.60;;
39442;SDS011;25147;52.142;9.960;2023-04-07T11:25:41;10.52;;;8.27;;
39442;SDS011;25147;52.142;9.960;2023-04-07T11:28:10;13.35;;;8.65;;
39442;SDS011;25147;52.142;9.960;2023-04-07T11:30:38;11.32;;;8.18;;
39442;SDS011;25147;52.142;9.960;2023-04-07T11:33:14;9.63;;;7.93;;
39442;SDS011;25147;52.142;9.960;2023-04-07T11:35:46;11.13;;;8.07;;
39442;SDS011;25147;52.142;9.960;2023-04-07T11:38:14;11.18;;;8.77;;
39442;SDS011;25147;52.142;9.960;2023-04-07T11:40:42;14.75;;;8.75;;
39442;SDS011;25147;52.142;9.960;2023-04-07T11:43:17;10.52;;;8.80;;
39442;SDS011;25147;52.142;9.960;2023-04-07T11:45:45;10.38;;;8.40;;
39442;SDS011;25147;52.142;9.960;2023-04-07T11:48:28;9.45;;;8.07;;
39442;SDS011;25147;52.142;9.960;2023-04-07T11:50:55;10.55;;;8.68;;
39442;SDS011;25147;52.142;9.960;2023-04-07T11:53:26;11.63;;;8.02;;
39442;SDS011;25147;52.142;9.960;2023-04-07T11:56:00;10.35;;;8.63;;
39442;SDS011;25147;52.142;9.960;2023-04-07T11:58:28;12.65;;;9.10;;
39442;SDS011;25147;52.142;9.960;2023-04-07T12:00:55;12.93;;;9.18;;
39442;SDS011;25147;52.142;9.960;2023-04-07T12:03:25;10.00;;;8.45;;
39442;SDS011;25147;52.142;9.960;2023-04-07T12:05:54;11.68;;;9.32;;
39442;SDS011;25147;52.142;9.960;2023-04-07T12:08:20;10.98;;;9.27;;
39442;SDS011;25147;52.142;9.960;2023-04-07T12:11:02;12.30;;;9.38;;
39442;SDS011;25147;52.142;9.960;2023-04-07T12:13:29;12.93;;;9.18;;
39442;SDS011;25147;52.142;9.960;2023-04-07T12:15:57;10.32;;;9.07;;
39442;SDS011;25147;52.142;9.960;2023-04-07T12:18:26;11.07;;;8.82;;
39442;SDS011;25147;52.142;9.960;2023-04-07T12:20:54;12.52;;;9.48;;
39442;SDS011;25147;52.142;9.960;2023-04-07T12:23:23;11.65;;;9.43;;
39442;SDS011;25147;52.142;9.960;2023-04-07T12:25:50;12.30;;;9.73;;
39442;SDS011;25147;52.142;9.960;2023-04-07T12:28:17;14.35;;;9.63;;
39442;SDS011;25147;52.142;9.960;2023-04-07T12:30:44;10.48;;;8.80;;
39442;SDS011;25147;52.142;9.960;2023-04-07T12:33:11;14.80;;;10.07;;
39442;SDS011;25147;52.142;9.960;2023-04-07T12:35:39;14.20;;;9.73;;
39442;SDS011;25147;52.142;9.960;2023-04-07T12:38:06;11.23;;;9.32;;
39442;SDS011;25147;52.142;9.960;2023-04-07T12:40:33;10.18;;;8.77;;
39442;SDS011;25147;52.142;9.960;2023-04-07T12:43:00;15.15;;;10.02;;
39442;SDS011;25147;52.142;9.960;2023-04-07T12:45:27;12.38;;;9.32;;
39442;SDS011;25147;52.142;9.960;2023-04-07T12:47:56;11.52;;;9.45;;
39442;SDS011;25147;52.142;9.960;2023-04-07T12:50:23;12.02;;;9.02;;
39442;SDS011;25147;52.142;9.960;2023-04-07T12:52:52;12.70;;;9.82;;
39442;SDS011;25147;52.142;9.960;2023-04-07T12:55:19;11.75;;;9.40;;
39442;SDS011;25147;52.142;9.960;2023-04-07T12:57:47;11.57;;;9.27;;
39442;SDS011;25147;52.142;9.960;2023-04-07T13:00:14;11.00;;;9.27;;
39442;SDS011;25147;52.142;9.960;2023-04-07T13:02:41;14.18;;;9.77;;
39442;SDS011;25147;52.142;9.960;2023-04-07T13:05:09;12.15;;;9.85;;
39442;SDS011;25147;52.142;9.960;2023-04-07T13:07:36;14.50;;;11.20;;
39442;SDS011;25147;52.142;9.960;2023-04-07T13:10:05;12.88;;;9.43;;
39442;SDS011;25147;52.142;9.960;2023-04-07T13:12:33;11.82;;;10.15;;
39442;SDS011;25147;52.142;9.960;2023-04-07T13:15:00;11.13;;;9.23;;
39442;SDS011;25147;52.142;9.960;2023-04-07T13:17:28;12.65;;;9.13;;
39442;SDS011;25147;52.142;9.960;2023-04-07T13:19:55;12.45;;;10.23;;
39442;SDS011;25147;52.142;9.960;2023-04-07T13:22:23;11.52;;;9.30;;
39442;SDS011;25147;52.142;9.960;2023-04-07T13:24:50;12.20;;;9.32;;
39442;SDS011;25147;52.142;9.960;2023-04-07T13:27:18;10.13;;;8.65;;
39442;SDS011;25147;52.142;9.960;2023-04-07T13:29:46;13.23;;;9.00;;
39442;SDS011;25147;52.142;9.960;2023-04-07T13:32:13;12.07;;;8.85;;
39442;SDS011;25147;52.142;9.960;2023-04-07T13:34:41;13.13;;;9.35;;
39442;SDS011;25147;52.142;9.960;2023-04-07T13:37:08;11.73;;;9.10;;
39442;SDS011;25147;52.142;9.960;2023-04-07T13:39:35;10.57;;;9.45;;
39442;SDS011;25147;52.142;9.960;2023-04-07T13:42:02;12.68;;;8.75;;
39442;SDS011;25147;52.142;9.960;2023-04-07T13:44:32;10.05;;;8.55;;
39442;SDS011;25147;52.142;9.960;2023-04-07T13:46:59;11.07;;;9.27;;
39442;SDS011;25147;52.142;9.960;2023-04-07T13:49:25;10.70;;;8.52;;
39442;SDS011;25147;52.142;9.960;2023-04-07T13:51:53;11.57;;;8.65;;
39442;SDS011;25147;52.142;9.960;2023-04-07T13:54:20;14.95;;;9.07;;
39442;SDS011;25147;52.142;9.960;2023-04-07T13:56:47;11.20;;;8.02;;
39442;SDS011;25147;52.142;9.960;2023-04-07T13:59:15;10.75;;;8.55;;
39442;SDS011;25147;52.142;9.960;2023-04-07T14:01:43;9.70;;;7.93;;
39442;SDS011;25147;52.142;9.960;2023-04-07T14:04:10;10.32;;;8.75;;
39442;SDS011;25147;52.142;9.960;2023-04-07T14:06:36;9.98;;;7.43;;
39442;SDS011;25147;52.142;9.960;2023-04-07T14:09:03;9.68;;;8.48;;
39442;SDS011;25147;52.142;9.960;2023-04-07T14:11:31;9.68;;;7.75;;
39442;SDS011;25147;52.142;9.960;2023-04-07T14:13:59;9.35;;;7.35;;
39442;SDS011;25147;52.142;9.960;2023-04-07T14:16:27;8.60;;;7.35;;
39442;SDS011;25147;52.142;9.960;2023-04-07T14:18:55;9.73;;;7.53;;
39442;SDS011;25147;52.142;9.960;2023-04-07T14:21:22;7.72;;;6.85;;
39442;SDS011;25147;52.142;9.960;2023-04-07T14:23:51;8.98;;;7.53;;
39442;SDS011;25147;52.142;9.960;2023-04-07T14:26:18;9.13;;;7.10;;
39442;SDS011;25147;52.142;9.960;2023-04-07T14:28:45;10.07;;;7.75;;
39442;SDS011;25147;52.142;9.960;2023-04-07T14:31:12;11.00;;;6.82;;
39442;SDS011;25147;52.142;9.960;2023-04-07T14:33:41;9.35;;;7.57;;
39442;SDS011;25147;52.142;9.960;2023-04-07T14:36:09;8.57;;;6.97;;
39442;SDS011;25147;52.142;9.960;2023-04-07T14:38:36;10.13;;;7.47;;
39442;SDS011;25147;52.142;9.960;2023-04-07T14:41:03;8.65;;;6.57;;
39442;SDS011;25147;52.142;9.960;2023-04-07T14:43:30;8.65;;;6.43;;
39442;SDS011;25147;52.142;9.960;2023-04-07T14:45:57;7.40;;;5.78;;
39442;SDS011;25147;52.142;9.960;2023-04-07T14:48:24;8.60;;;6.65;;